createdAt,value
2018-05-07T00:00:08.927Z,2.83
2018-05-07T00:02:35.803Z,2.67
2018-05-07T00:05:02.759Z,2.50
2018-05-07T00:07:29.684Z,2.47
2018-05-07T00:09:56.547Z,2.60
2018-05-07T00:12:23.510Z,2.73
2018-05-07T00:14:50.437Z,2.60
2018-05-07T00:17:17.292Z,2.80
2018-05-07T00:19:44.212Z,2.93
2018-05-07T00:22:11.157Z,2.77
2018-05-07T00:24:38.094Z,3.00
2018-05-07T00:27:04.958Z,2.57
2018-05-07T00:29:31.918Z,2.77
2018-05-07T00:31:58.845Z,2.40
2018-05-07T00:34:26.526Z,2.63
2018-05-07T00:36:53.447Z,2.97
2018-05-07T00:39:21.178Z,2.77
2018-05-07T00:41:48.119Z,2.57
2018-05-07T00:44:14.994Z,2.87
2018-05-07T00:46:41.957Z,2.40
2018-05-07T00:49:09.645Z,2.50
2018-05-07T00:51:36.632Z,2.87
2018-05-07T00:54:03.569Z,2.80
2018-05-07T00:56:30.501Z,3.03
2018-05-07T00:58:57.420Z,2.57
2018-05-07T01:01:24.299Z,2.50
2018-05-07T01:03:51.232Z,3.03
2018-05-07T01:06:18.174Z,2.43
2018-05-07T01:08:45.052Z,3.20
2018-05-07T01:11:11.998Z,3.07
2018-05-07T01:13:38.855Z,2.40
2018-05-07T01:16:05.722Z,2.77
2018-05-07T01:18:32.666Z,2.93
2018-05-07T01:20:59.543Z,2.40
2018-05-07T01:23:26.467Z,2.70
2018-05-07T01:25:53.420Z,2.40
2018-05-07T01:28:20.333Z,3.30
2018-05-07T01:30:47.241Z,2.93
2018-05-07T01:33:14.093Z,2.00
2018-05-07T01:35:41.075Z,2.90
2018-05-07T01:38:08.698Z,2.97
2018-05-07T01:40:35.647Z,3.40
2018-05-07T01:43:02.574Z,2.67
2018-05-07T01:45:29.505Z,2.80
2018-05-07T01:47:56.438Z,2.77
2018-05-07T01:50:23.406Z,3.00
2018-05-07T01:52:50.284Z,2.50
2018-05-07T01:55:17.184Z,2.50
2018-05-07T01:57:44.106Z,2.97
2018-05-07T02:00:11.902Z,2.10
2018-05-07T02:02:38.789Z,3.00
2018-05-07T02:05:05.716Z,3.20
2018-05-07T02:07:32.590Z,2.70
2018-05-07T02:09:59.512Z,2.90
2018-05-07T02:12:26.439Z,2.57
2018-05-07T02:14:53.451Z,2.43
2018-05-07T02:17:20.393Z,3.13
2018-05-07T02:19:47.312Z,2.63
2018-05-07T02:22:14.178Z,3.10
2018-05-07T02:24:41.109Z,2.93
2018-05-07T02:27:07.980Z,2.90
2018-05-07T02:29:34.831Z,2.73
2018-05-07T02:32:01.757Z,2.60
2018-05-07T02:34:28.627Z,3.10
2018-05-07T02:36:55.583Z,3.50
2018-05-07T02:39:22.508Z,3.00
2018-05-07T02:41:49.415Z,2.40
2018-05-07T02:44:16.280Z,3.20
2018-05-07T02:46:43.986Z,2.63
2018-05-07T02:49:10.853Z,2.40
2018-05-07T02:51:37.788Z,3.40
2018-05-07T02:54:04.665Z,2.70
2018-05-07T02:56:31.663Z,2.63
2018-05-07T02:58:58.587Z,2.90
2018-05-07T03:01:25.601Z,2.63
2018-05-07T03:03:52.461Z,2.50
2018-05-07T03:06:19.399Z,3.00
2018-05-07T03:08:46.338Z,2.93
2018-05-07T03:11:13.199Z,3.73
2018-05-07T03:13:40.131Z,3.23
2018-05-07T03:16:07.069Z,3.10
2018-05-07T03:18:34.028Z,2.83
2018-05-07T03:21:01.023Z,3.37
2018-05-07T03:23:27.907Z,3.30
2018-05-07T03:25:54.847Z,3.37
2018-05-07T03:28:21.730Z,3.30
2018-05-07T03:30:48.654Z,4.80
2018-05-07T03:33:15.509Z,4.20
2018-05-07T03:35:42.430Z,3.70
2018-05-07T03:38:09.351Z,3.30
2018-05-07T03:40:36.293Z,2.60
2018-05-07T03:43:03.936Z,3.60
2018-05-07T03:45:30.798Z,5.10
2018-05-07T03:47:57.725Z,3.60
2018-05-07T03:50:25.323Z,3.33
2018-05-07T03:52:52.270Z,3.63
2018-05-07T03:55:19.124Z,3.30
2018-05-07T03:57:45.981Z,3.47
2018-05-07T04:00:12.915Z,3.73
2018-05-07T04:02:39.869Z,3.23
2018-05-07T04:05:06.793Z,3.30
2018-05-07T04:07:33.721Z,3.90
2018-05-07T04:10:00.576Z,4.03
2018-05-07T04:12:27.606Z,4.10
2018-05-07T04:14:54.466Z,4.37
2018-05-07T04:17:33.481Z,3.60
2018-05-07T04:20:12.576Z,4.43
2018-05-07T04:23:01.263Z,3.43
2018-05-07T04:25:28.405Z,3.90
2018-05-07T04:28:09.912Z,4.03
2018-05-07T04:30:37.556Z,3.43
2018-05-07T04:33:04.873Z,4.20
2018-05-07T04:35:33.898Z,4.23
2018-05-07T04:40:52.602Z,3.60
2018-05-07T04:43:19.668Z,4.30
2018-05-07T04:45:46.626Z,3.40
2018-05-07T04:48:13.822Z,3.90
2018-05-07T04:50:41.417Z,3.90
2018-05-07T04:53:08.429Z,3.57
2018-05-07T04:55:36.034Z,4.17
2018-05-07T04:58:03.470Z,3.67
2018-05-07T05:00:30.376Z,4.20
2018-05-07T05:02:57.372Z,3.37
2018-05-07T05:05:24.289Z,3.80
2018-05-07T05:07:51.980Z,3.53
2018-05-07T05:10:19.530Z,3.83
2018-05-07T05:12:46.455Z,3.70
2018-05-07T05:15:18.235Z,3.67
2018-05-07T05:17:45.460Z,3.70
2018-05-07T05:20:12.337Z,3.50
2018-05-07T05:22:39.330Z,3.37
2018-05-07T05:25:06.188Z,3.23
2018-05-07T05:27:33.109Z,3.50
2018-05-07T05:30:00.112Z,3.70
2018-05-07T05:32:27.694Z,3.60
2018-05-07T05:34:54.617Z,3.60
2018-05-07T05:37:21.554Z,4.40
2018-05-07T05:39:48.453Z,3.60
2018-05-07T05:42:15.376Z,3.83
2018-05-07T05:44:42.249Z,3.50
2018-05-07T05:47:09.171Z,3.33
2018-05-07T05:49:36.144Z,3.63
2018-05-07T05:52:03.014Z,3.97
2018-05-07T05:54:29.937Z,3.63
2018-05-07T05:56:56.789Z,3.63
2018-05-07T05:59:23.657Z,3.40
2018-05-07T06:01:51.319Z,3.50
2018-05-07T06:04:18.168Z,3.53
2018-05-07T06:06:45.824Z,4.03
2018-05-07T06:09:13.517Z,3.70
2018-05-07T06:11:40.453Z,3.13
2018-05-07T06:14:07.324Z,3.90
2018-05-07T06:16:34.280Z,3.30
2018-05-07T06:19:01.160Z,3.10
2018-05-07T06:21:28.004Z,4.13
2018-05-07T06:23:54.929Z,3.80
2018-05-07T06:26:21.784Z,4.30
2018-05-07T06:28:48.723Z,3.37
2018-05-07T06:31:15.602Z,3.50
2018-05-07T06:33:43.273Z,2.87
2018-05-07T06:36:10.124Z,3.70
2018-05-07T06:38:37.065Z,3.53
2018-05-07T06:41:04.021Z,2.80
2018-05-07T06:43:30.931Z,3.10
2018-05-07T06:45:57.933Z,3.73
2018-05-07T06:48:24.777Z,2.53
2018-05-07T06:50:51.624Z,2.93
2018-05-07T06:53:18.555Z,3.90
2018-05-07T06:55:45.485Z,3.80
2018-05-07T06:58:12.358Z,3.33
2018-05-07T07:00:39.300Z,4.10
2018-05-07T07:03:06.218Z,3.53
2018-05-07T07:05:33.278Z,3.40
2018-05-07T07:08:00.450Z,3.43
2018-05-07T07:10:27.619Z,3.87
2018-05-07T07:12:54.648Z,3.80
2018-05-07T07:15:21.794Z,3.57
2018-05-07T07:17:48.722Z,4.30
2018-05-07T07:20:15.593Z,2.73
2018-05-07T07:22:42.507Z,3.20
2018-05-07T07:25:12.692Z,3.70
2018-05-07T07:27:39.572Z,2.97
2018-05-07T07:30:07.254Z,2.83
2018-05-07T07:32:34.178Z,3.63
2018-05-07T07:35:01.041Z,3.33
2018-05-07T07:37:30.044Z,3.53
2018-05-07T07:39:57.089Z,3.53
2018-05-07T07:42:23.963Z,3.67
2018-05-07T07:44:50.849Z,4.07
2018-05-07T07:47:17.835Z,3.83
2018-05-07T07:49:44.701Z,4.53
2018-05-07T07:52:11.655Z,3.83
2018-05-07T07:54:38.567Z,3.70
2018-05-07T07:57:05.514Z,4.03
2018-05-07T07:59:32.432Z,3.70
2018-05-07T08:01:59.356Z,3.67
2018-05-07T08:04:26.285Z,3.90
2018-05-07T08:06:53.153Z,3.10
2018-05-07T08:09:20.872Z,3.70
2018-05-07T08:11:47.819Z,3.83
2018-05-07T08:14:14.771Z,3.30
2018-05-07T08:16:41.705Z,3.23
2018-05-07T08:19:08.545Z,3.43
2018-05-07T08:21:35.476Z,3.33
2018-05-07T08:24:02.401Z,3.30
2018-05-07T08:26:30.005Z,3.20
2018-05-07T08:28:56.950Z,3.60
2018-05-07T08:31:23.834Z,3.10
2018-05-07T08:33:50.735Z,3.57
2018-05-07T08:36:17.665Z,3.70
2018-05-07T08:38:44.595Z,2.90
2018-05-07T08:41:11.456Z,3.30
2018-05-07T08:43:38.381Z,3.40
2018-05-07T08:46:06.053Z,3.50
2018-05-07T08:48:32.908Z,3.53
2018-05-07T08:50:59.828Z,2.80
2018-05-07T08:53:27.420Z,3.57
2018-05-07T08:55:54.320Z,3.20
2018-05-07T08:58:21.192Z,3.60
2018-05-07T09:00:48.105Z,3.60
2018-05-07T09:03:14.957Z,3.00
2018-05-07T09:05:41.864Z,3.03
2018-05-07T09:08:08.771Z,2.57
2018-05-07T09:10:36.421Z,3.37
2018-05-07T09:13:03.350Z,3.40
2018-05-07T09:15:30.198Z,3.17
2018-05-07T09:17:57.116Z,3.23
2018-05-07T09:20:23.974Z,3.33
2018-05-07T09:22:50.813Z,3.60
2018-05-07T09:25:17.725Z,3.40
2018-05-07T09:27:44.573Z,3.60
2018-05-07T09:30:11.496Z,3.40
2018-05-07T09:32:38.357Z,3.20
2018-05-07T09:35:05.316Z,3.20
2018-05-07T09:37:32.157Z,3.47
2018-05-07T09:39:59.113Z,3.10
2018-05-07T09:42:25.949Z,3.33
2018-05-07T09:44:52.864Z,3.10
2018-05-07T09:47:19.725Z,3.33
2018-05-07T09:49:46.627Z,2.83
2018-05-07T09:52:13.469Z,2.47
2018-05-07T09:54:40.406Z,3.03
2018-05-07T09:57:07.351Z,3.13
2018-05-07T09:59:34.264Z,3.30
2018-05-07T10:02:01.193Z,4.00
2018-05-07T10:04:28.117Z,4.50
2018-05-07T10:06:54.987Z,3.20
2018-05-07T10:09:21.929Z,3.20
2018-05-07T10:11:51.450Z,3.47
2018-05-07T10:14:18.582Z,3.20
2018-05-07T10:16:45.524Z,2.87
2018-05-07T10:19:12.454Z,3.20
2018-05-07T10:21:40.117Z,3.43
2018-05-07T10:24:07.792Z,3.40
2018-05-07T10:26:34.737Z,3.50
2018-05-07T10:29:01.638Z,3.13
2018-05-07T10:31:28.593Z,4.37
2018-05-07T10:33:55.532Z,3.33
2018-05-07T10:36:22.405Z,3.20
2018-05-07T10:38:50.477Z,3.70
2018-05-07T10:41:18.092Z,3.20
2018-05-07T10:43:45.090Z,3.77
2018-05-07T10:46:12.776Z,3.90
2018-05-07T10:48:39.648Z,3.63
2018-05-07T10:51:06.573Z,8.70
2018-05-07T10:53:33.541Z,3.63
2018-05-07T10:56:00.422Z,3.30
2018-05-07T10:58:27.302Z,3.13
2018-05-07T11:00:54.230Z,4.20
2018-05-07T11:03:21.890Z,3.03
2018-05-07T11:05:49.509Z,3.27
2018-05-07T11:08:16.381Z,3.50
2018-05-07T11:10:43.308Z,3.13
2018-05-07T11:13:10.251Z,3.23
2018-05-07T11:15:37.259Z,3.50
2018-05-07T11:18:04.125Z,3.40
2018-05-07T11:20:31.053Z,3.07
2018-05-07T11:22:57.983Z,2.90
2018-05-07T11:25:25.218Z,3.67
2018-05-07T11:27:52.818Z,2.83
2018-05-07T11:30:19.756Z,2.93
2018-05-07T11:32:46.631Z,2.93
2018-05-07T11:35:13.553Z,3.20
2018-05-07T11:37:40.470Z,2.90
2018-05-07T11:40:08.058Z,3.20
2018-05-07T11:42:34.978Z,3.07
2018-05-07T11:45:01.850Z,2.80
2018-05-07T11:47:28.708Z,3.57
2018-05-07T11:49:55.688Z,2.57
2018-05-07T11:52:22.548Z,3.00
2018-05-07T11:54:50.212Z,3.27
2018-05-07T11:57:17.881Z,3.50
2018-05-07T11:59:45.575Z,3.73
2018-05-07T12:02:12.454Z,2.70
2018-05-07T12:04:39.468Z,2.80
2018-05-07T12:07:06.333Z,2.80
2018-05-07T12:09:33.262Z,3.30
2018-05-07T12:12:01.099Z,2.20
2018-05-07T12:14:28.827Z,2.40
2018-05-07T12:16:55.803Z,2.83
2018-05-07T12:19:22.777Z,3.00
2018-05-07T12:21:49.709Z,2.43
2018-05-07T12:24:16.661Z,2.43
2018-05-07T12:26:43.647Z,2.67
2018-05-07T12:29:10.497Z,3.30
2018-05-07T12:31:37.517Z,2.80
2018-05-07T12:34:04.330Z,2.27
2018-05-07T12:36:33.215Z,2.60
2018-05-07T12:39:07.813Z,2.80
2018-05-07T12:41:35.230Z,3.23
2018-05-07T12:44:02.178Z,2.37
2018-05-07T12:46:29.058Z,2.30
2018-05-07T12:48:55.898Z,2.20
2018-05-07T12:51:22.810Z,2.13
2018-05-07T12:53:49.659Z,2.13
2018-05-07T12:56:16.611Z,2.40
2018-05-07T12:58:43.878Z,2.40
2018-05-07T13:01:12.124Z,2.30
2018-05-07T13:03:39.206Z,2.10
2018-05-07T13:06:07.206Z,2.37
2018-05-07T13:08:34.254Z,2.40
2018-05-07T13:11:06.394Z,2.43
2018-05-07T13:13:37.071Z,2.63
2018-05-07T13:16:05.398Z,2.50
2018-05-07T13:18:36.641Z,2.93
2018-05-07T13:21:04.102Z,2.30
2018-05-07T13:23:31.818Z,2.20
2018-05-07T13:25:59.405Z,2.30
2018-05-07T13:28:27.685Z,2.20
2018-05-07T13:30:55.145Z,2.70
2018-05-07T13:33:22.145Z,2.40
2018-05-07T13:35:49.146Z,2.47
2018-05-07T13:38:16.393Z,2.97
2018-05-07T13:40:44.182Z,2.50
2018-05-07T13:43:11.163Z,2.23
2018-05-07T13:45:38.774Z,2.93
2018-05-07T13:48:05.701Z,3.97
2018-05-07T13:50:32.691Z,3.03
2018-05-07T13:52:59.566Z,2.83
2018-05-07T13:55:26.401Z,2.87
2018-05-07T13:57:53.320Z,2.33
2018-05-07T14:00:20.196Z,2.33
2018-05-07T14:02:50.877Z,2.40
2018-05-07T14:05:18.954Z,2.50
2018-05-07T14:07:45.889Z,2.70
2018-05-07T14:10:12.807Z,2.07
2018-05-07T14:12:50.968Z,2.43
2018-05-07T14:15:22.654Z,2.30
2018-05-07T14:17:52.169Z,2.43
2018-05-07T14:20:21.874Z,3.07
2018-05-07T14:22:54.041Z,2.40
2018-05-07T14:25:29.891Z,2.43
2018-05-07T14:28:04.889Z,2.70
2018-05-07T14:30:41.663Z,2.80
2018-05-07T14:33:16.875Z,2.30
2018-05-07T14:35:43.954Z,2.87
2018-05-07T14:38:15.082Z,2.63
2018-05-07T14:40:42.012Z,2.67
2018-05-07T14:43:09.637Z,2.47
2018-05-07T14:45:36.605Z,1.93
2018-05-07T14:48:03.645Z,2.27
2018-05-07T14:50:30.528Z,2.90
2018-05-07T14:52:57.485Z,2.57
2018-05-07T14:55:25.982Z,2.23
2018-05-07T14:57:52.945Z,2.37
2018-05-07T15:00:19.815Z,2.13
2018-05-07T15:02:47.866Z,2.03
2018-05-07T15:05:18.235Z,2.40
2018-05-07T15:07:46.787Z,2.07
2018-05-07T15:10:13.806Z,1.97
2018-05-07T15:12:41.505Z,2.97
2018-05-07T15:15:09.552Z,2.40
2018-05-07T15:17:36.563Z,2.47
2018-05-07T15:20:03.604Z,2.87
2018-05-07T15:22:30.550Z,2.03
2018-05-07T15:24:57.422Z,2.20
2018-05-07T15:27:26.243Z,2.57
2018-05-07T15:29:53.258Z,2.00
2018-05-07T15:32:22.221Z,3.27
2018-05-07T15:34:52.339Z,2.83
2018-05-07T15:37:37.931Z,2.50
2018-05-07T15:40:16.623Z,2.07
2018-05-07T15:42:50.659Z,2.17
2018-05-07T15:45:21.808Z,2.20
2018-05-07T15:47:50.114Z,2.50
2018-05-07T15:50:26.745Z,2.47
2018-05-07T15:52:54.516Z,2.40
2018-05-07T15:55:31.068Z,2.20
2018-05-07T15:57:59.857Z,3.07
2018-05-07T16:03:15.864Z,2.60
2018-05-07T16:08:32.174Z,2.47
2018-05-07T16:11:03.879Z,2.67
2018-05-07T16:13:30.880Z,2.23
2018-05-07T16:16:01.293Z,2.30
2018-05-07T16:18:32.294Z,3.00
2018-05-07T16:21:14.610Z,2.67
2018-05-07T16:23:43.506Z,2.33
2018-05-07T16:26:14.861Z,2.07
2018-05-07T16:28:43.443Z,2.83
2018-05-07T16:31:12.420Z,3.10
2018-05-07T16:33:48.202Z,2.70
2018-05-07T16:36:15.430Z,2.70
2018-05-07T16:38:42.438Z,2.67
2018-05-07T16:41:09.682Z,2.53
2018-05-07T16:43:36.590Z,2.80
2018-05-07T16:46:03.513Z,3.13
2018-05-07T16:48:30.702Z,2.30
2018-05-07T16:51:00.682Z,2.83
2018-05-07T16:53:27.553Z,2.90
2018-05-07T16:56:07.350Z,2.60
2018-05-07T16:58:35.311Z,3.10
2018-05-07T17:01:12.053Z,2.40
2018-05-07T17:03:50.045Z,3.10
2018-05-07T17:06:27.935Z,2.90
2018-05-07T17:09:06.705Z,2.90
2018-05-07T17:11:45.248Z,2.67
2018-05-07T17:14:12.785Z,2.77
2018-05-07T17:16:39.780Z,2.90
2018-05-07T17:19:06.697Z,2.57
2018-05-07T17:21:33.639Z,2.80
2018-05-07T17:24:00.527Z,2.70
2018-05-07T17:26:27.461Z,2.50
2018-05-07T17:28:55.090Z,2.47
2018-05-07T17:31:21.968Z,2.27
2018-05-07T17:33:48.956Z,2.80
2018-05-07T17:36:15.926Z,3.97
2018-05-07T17:38:42.778Z,2.30
2018-05-07T17:41:09.710Z,2.70
2018-05-07T17:43:36.587Z,2.57
2018-05-07T17:46:25.036Z,2.40
2018-05-07T17:48:59.053Z,2.50
2018-05-07T17:51:26.742Z,2.93
2018-05-07T17:53:53.601Z,2.60
2018-05-07T17:56:20.476Z,3.00
2018-05-07T17:58:47.444Z,2.90
2018-05-07T18:01:15.004Z,2.50
2018-05-07T18:03:49.968Z,2.97
2018-05-07T18:06:21.932Z,2.60
2018-05-07T18:08:50.404Z,2.47
2018-05-07T18:11:27.323Z,2.53
2018-05-07T18:13:54.445Z,2.47
2018-05-07T18:16:21.507Z,3.03
2018-05-07T18:18:48.418Z,7.50
2018-05-07T18:21:16.689Z,2.87
2018-05-07T18:23:43.681Z,2.73
2018-05-07T18:26:10.546Z,3.20
2018-05-07T18:28:37.733Z,2.80
2018-05-07T18:31:05.357Z,2.90
2018-05-07T18:33:33.289Z,2.80
2018-05-07T18:36:00.203Z,4.90
2018-05-07T18:38:28.006Z,9.60
2018-05-07T18:40:56.071Z,7.33
2018-05-07T18:43:22.931Z,3.70
2018-05-07T18:45:50.016Z,4.10
2018-05-07T18:48:16.886Z,3.63
2018-05-07T18:50:43.808Z,3.27
2018-05-07T18:53:10.746Z,4.00
2018-05-07T18:55:39.860Z,3.67
2018-05-07T18:58:16.263Z,3.80
2018-05-07T19:00:45.645Z,3.50
2018-05-07T19:03:13.581Z,4.00
2018-05-07T19:05:40.511Z,4.50
2018-05-07T19:08:11.723Z,3.97
2018-05-07T19:10:38.716Z,4.27
2018-05-07T19:13:05.653Z,3.93
2018-05-07T19:15:33.025Z,4.27
2018-05-07T19:18:04.206Z,4.63
2018-05-07T19:20:31.526Z,4.50
2018-05-07T19:22:58.446Z,4.03
2018-05-07T19:25:25.606Z,4.40
2018-05-07T19:27:52.537Z,4.33
2018-05-07T19:30:19.398Z,3.67
2018-05-07T19:32:46.297Z,3.63
2018-05-07T19:35:13.969Z,4.80
2018-05-07T19:37:40.827Z,3.50
2018-05-07T19:40:07.688Z,4.60
2018-05-07T19:42:34.612Z,10.30
2018-05-07T19:45:01.552Z,8.27
2018-05-07T19:47:28.463Z,8.40
2018-05-07T19:49:56.927Z,5.83
2018-05-07T19:52:23.793Z,4.50
2018-05-07T19:54:53.602Z,4.97
2018-05-07T19:57:20.616Z,5.43
2018-05-07T19:59:49.513Z,7.37
2018-05-07T20:02:16.484Z,6.27
2018-05-07T20:04:43.346Z,5.07
2018-05-07T20:07:11.015Z,5.23
2018-05-07T20:09:39.189Z,5.73
2018-05-07T20:12:07.509Z,5.13
2018-05-07T20:14:34.376Z,3.87
2018-05-07T20:17:01.309Z,4.93
2018-05-07T20:19:28.342Z,4.50
2018-05-07T20:21:55.289Z,7.27
2018-05-07T20:24:52.953Z,4.90
2018-05-07T20:27:21.590Z,5.40
2018-05-07T20:29:49.268Z,4.70
2018-05-07T20:32:16.901Z,4.27
2018-05-07T20:34:43.757Z,6.13
2018-05-07T20:37:11.426Z,4.03
2018-05-07T20:39:39.146Z,4.33
2018-05-07T20:42:06.081Z,3.93
2018-05-07T20:44:34.796Z,4.50
2018-05-07T20:47:03.664Z,4.33
2018-05-07T20:49:31.926Z,4.03
2018-05-07T20:51:58.926Z,4.43
2018-05-07T20:54:25.805Z,3.73
2018-05-07T20:56:53.708Z,4.43
2018-05-07T20:59:21.779Z,4.00
2018-05-07T21:01:50.703Z,3.80
2018-05-07T21:04:19.970Z,7.93
2018-05-07T21:06:48.764Z,4.23
2018-05-07T21:09:18.385Z,3.70
2018-05-07T21:11:45.237Z,3.90
2018-05-07T21:14:12.257Z,5.20
2018-05-07T21:16:39.115Z,3.47
2018-05-07T21:19:05.990Z,3.60
2018-05-07T21:21:33.450Z,3.57
2018-05-07T21:24:00.370Z,3.90
2018-05-07T21:26:27.314Z,3.43
2018-05-07T21:28:54.174Z,7.53
2018-05-07T21:31:21.120Z,14.17
2018-05-07T21:33:47.997Z,4.40
2018-05-07T21:36:15.736Z,5.00
2018-05-07T21:38:42.606Z,4.00
2018-05-07T21:41:10.229Z,4.23
2018-05-07T21:43:37.167Z,3.70
2018-05-07T21:46:04.072Z,3.80
2018-05-07T21:48:31.433Z,4.07
2018-05-07T21:51:11.260Z,3.73
2018-05-07T21:53:39.057Z,4.17
2018-05-07T21:56:05.913Z,3.67
2018-05-07T21:58:33.466Z,3.50
2018-05-07T22:01:00.677Z,4.10
2018-05-07T22:03:28.350Z,3.40
2018-05-07T22:05:55.779Z,3.70
2018-05-07T22:08:22.699Z,3.30
2018-05-07T22:10:51.486Z,3.70
2018-05-07T22:13:18.427Z,3.83
2018-05-07T22:15:45.289Z,3.60
2018-05-07T22:18:12.210Z,3.70
2018-05-07T22:20:39.067Z,3.53
2018-05-07T22:23:06.054Z,3.80
2018-05-07T22:25:32.987Z,3.87
2018-05-07T22:28:01.119Z,5.20
2018-05-07T22:30:28.086Z,4.20
2018-05-07T22:32:55.004Z,4.87
2018-05-07T22:35:22.681Z,4.73
2018-05-07T22:37:49.606Z,4.30
2018-05-07T22:40:16.505Z,4.70
2018-05-07T22:42:44.023Z,5.80
2018-05-07T22:45:10.946Z,3.53
2018-05-07T22:47:37.815Z,4.73
2018-05-07T22:50:04.761Z,4.40
2018-05-07T22:52:31.610Z,4.33
2018-05-07T22:55:18.669Z,4.53
2018-05-07T22:57:45.617Z,4.70
2018-05-07T23:00:20.843Z,4.77
2018-05-07T23:02:48.779Z,3.77
2018-05-07T23:05:15.709Z,4.20
2018-05-07T23:07:42.599Z,4.07
2018-05-07T23:10:09.560Z,3.40
2018-05-07T23:12:36.448Z,4.20
2018-05-07T23:15:03.541Z,3.83
2018-05-07T23:17:30.479Z,4.10
2018-05-07T23:19:57.362Z,3.70
2018-05-07T23:22:24.345Z,3.77
2018-05-07T23:24:51.266Z,4.03
2018-05-07T23:27:18.855Z,3.87
2018-05-07T23:29:45.797Z,4.10
2018-05-07T23:32:12.710Z,3.90
2018-05-07T23:34:39.560Z,3.50
2018-05-07T23:37:07.220Z,3.77
2018-05-07T23:39:34.810Z,3.90
2018-05-07T23:42:01.724Z,4.23
2018-05-07T23:44:29.399Z,4.30
2018-05-07T23:46:56.360Z,3.67
2018-05-07T23:49:23.253Z,4.13
2018-05-07T23:51:50.178Z,3.70
2018-05-07T23:54:17.053Z,3.73
2018-05-07T23:56:43.948Z,4.27
2018-05-07T23:59:10.866Z,4.17
